createdAt,value
2023-05-07T00:02:36.527Z,14.69
2023-05-07T00:06:21.173Z,14.71
2023-05-07T00:10:03.997Z,14.69
2023-05-07T00:13:46.881Z,14.69
2023-05-07T00:17:29.599Z,14.68
2023-05-07T00:21:12.982Z,14.65
2023-05-07T00:24:57.123Z,14.49
2023-05-07T00:28:40.320Z,14.45
2023-05-07T00:32:23.084Z,14.44
2023-05-07T00:36:06.441Z,14.38
2023-05-07T00:39:49.065Z,14.31
2023-05-07T00:43:33.089Z,14.28
2023-05-07T00:47:16.447Z,14.28
2023-05-07T00:50:59.270Z,14.19
2023-05-07T00:54:43.483Z,14.21
2023-05-07T00:58:26.200Z,14.27
2023-05-07T01:02:10.388Z,14.27
2023-05-07T01:05:53.309Z,14.23
2023-05-07T01:09:37.253Z,14.12
2023-05-07T01:13:20.119Z,14.15
2023-05-07T01:17:02.958Z,14.21
2023-05-07T01:20:47.359Z,14.25
2023-05-07T01:24:32.256Z,14.29
2023-05-07T01:28:14.964Z,14.28
2023-05-07T01:31:59.745Z,14.29
2023-05-07T01:35:47.893Z,14.26
2023-05-07T01:39:32.461Z,14.17
2023-05-07T01:43:15.349Z,14.05
2023-05-07T01:46:59.177Z,13.95
2023-05-07T01:50:41.870Z,14.01
2023-05-07T01:54:28.619Z,14.06
2023-05-07T01:58:15.289Z,14.02
2023-05-07T02:01:58.102Z,14.05
2023-05-07T02:05:40.808Z,14.11
2023-05-07T02:09:23.966Z,14.16
2023-05-07T02:13:17.374Z,14.19
2023-05-07T02:17:00.148Z,14.18
2023-05-07T02:20:42.802Z,14.15
2023-05-07T02:24:25.490Z,14.17
2023-05-07T02:28:08.187Z,14.14
2023-05-07T02:31:53.928Z,14.11
2023-05-07T02:35:36.705Z,14.08
2023-05-07T02:39:19.367Z,14.06
2023-05-07T02:43:02.058Z,14.04
2023-05-07T02:46:44.711Z,14.02
2023-05-07T02:50:28.800Z,13.97
2023-05-07T02:54:12.601Z,13.95
2023-05-07T02:57:55.331Z,13.94
2023-05-07T03:01:38.016Z,13.92
2023-05-07T03:05:20.973Z,13.92
2023-05-07T03:09:05.266Z,13.89
2023-05-07T03:12:47.934Z,13.86
2023-05-07T03:16:31.119Z,13.82
2023-05-07T03:20:14.303Z,13.79
2023-05-07T03:23:57.861Z,13.76
2023-05-07T03:27:42.841Z,13.72
2023-05-07T03:31:25.702Z,13.68
2023-05-07T03:35:08.822Z,13.59
2023-05-07T03:38:53.255Z,13.53
2023-05-07T03:42:36.157Z,13.47
2023-05-07T03:46:20.243Z,13.48
2023-05-07T03:50:02.998Z,13.46
2023-05-07T03:53:45.611Z,13.46
2023-05-07T03:57:28.259Z,13.45
2023-05-07T04:01:11.000Z,13.44
2023-05-07T04:04:55.504Z,13.41
2023-05-07T04:08:38.154Z,13.37
2023-05-07T04:12:20.862Z,13.36
2023-05-07T04:16:04.821Z,13.37
2023-05-07T04:19:47.849Z,13.36
2023-05-07T04:23:31.986Z,13.34
2023-05-07T04:27:14.611Z,13.25
2023-05-07T04:30:57.292Z,13.25
2023-05-07T04:34:39.949Z,13.27
2023-05-07T04:38:24.526Z,13.27
2023-05-07T04:42:09.832Z,13.28
2023-05-07T04:45:53.092Z,13.33
2023-05-07T04:49:35.908Z,13.33
2023-05-07T04:53:18.775Z,13.27
2023-05-07T04:57:01.481Z,13.32
2023-05-07T05:00:45.518Z,13.38
2023-05-07T05:04:28.364Z,13.43
2023-05-07T05:08:11.218Z,13.42
2023-05-07T05:11:53.881Z,13.41
2023-05-07T05:15:36.622Z,13.45
2023-05-07T05:19:20.768Z,13.51
2023-05-07T05:23:03.729Z,13.56
2023-05-07T05:26:46.452Z,13.62
2023-05-07T05:30:29.151Z,13.66
2023-05-07T05:34:11.854Z,13.69
2023-05-07T05:37:55.838Z,13.71
2023-05-07T05:41:38.518Z,13.78
2023-05-07T05:45:21.252Z,13.91
2023-05-07T05:49:03.912Z,14.01
2023-05-07T05:52:46.561Z,14.09
2023-05-07T05:56:31.097Z,14.17
2023-05-07T06:00:14.886Z,14.28
2023-05-07T06:03:58.151Z,14.39
2023-05-07T06:07:40.860Z,14.47
2023-05-07T06:11:23.615Z,14.54
2023-05-07T06:15:08.801Z,14.65
2023-05-07T06:18:51.471Z,14.74
2023-05-07T06:22:34.216Z,14.81
2023-05-07T06:26:16.834Z,14.89
2023-05-07T06:29:59.490Z,15.00
2023-05-07T06:33:43.804Z,15.08
2023-05-07T06:37:26.817Z,15.19
2023-05-07T06:41:09.569Z,15.32
2023-05-07T06:44:52.237Z,15.43
2023-05-07T06:48:34.934Z,15.52
2023-05-07T06:52:18.966Z,15.63
2023-05-07T06:56:01.618Z,15.74
2023-05-07T06:59:44.294Z,15.84
2023-05-07T07:03:27.064Z,15.95
2023-05-07T07:07:09.823Z,16.06
2023-05-07T07:10:53.898Z,16.16
2023-05-07T07:14:36.871Z,16.28
2023-05-07T07:18:19.546Z,16.40
2023-05-07T07:22:02.187Z,16.50
2023-05-07T07:25:44.890Z,16.60
2023-05-07T07:29:28.948Z,16.68
2023-05-07T07:33:14.402Z,16.78
2023-05-07T07:36:57.232Z,16.87
2023-05-07T07:40:39.915Z,16.97
2023-05-07T07:44:22.634Z,17.03
2023-05-07T07:48:07.360Z,17.13
2023-05-07T07:51:50.125Z,17.22
2023-05-07T07:55:33.209Z,17.32
2023-05-07T07:59:19.632Z,17.40
2023-05-07T08:03:04.176Z,17.54
2023-05-07T08:06:48.390Z,17.61
2023-05-07T08:10:35.301Z,17.74
2023-05-07T08:14:18.109Z,17.86
2023-05-07T08:18:01.385Z,17.95
2023-05-07T08:21:44.100Z,18.02
2023-05-07T08:25:28.356Z,18.08
2023-05-07T08:29:11.107Z,18.16
2023-05-07T08:32:53.845Z,18.24
2023-05-07T08:36:36.561Z,18.36
2023-05-07T08:40:19.617Z,18.45
2023-05-07T08:44:05.569Z,18.52
2023-05-07T08:47:49.564Z,18.57
2023-05-07T08:51:32.371Z,18.61
2023-05-07T08:55:16.104Z,18.68
2023-05-07T08:58:59.870Z,18.76
2023-05-07T09:02:44.144Z,18.81
2023-05-07T09:06:27.673Z,18.86
2023-05-07T09:10:11.306Z,18.94
2023-05-07T09:13:56.500Z,19.05
2023-05-07T09:17:39.315Z,19.15
2023-05-07T09:21:23.911Z,19.26
2023-05-07T09:25:08.039Z,19.38
2023-05-07T09:28:50.773Z,19.48
2023-05-07T09:32:36.676Z,19.58
2023-05-07T09:36:20.183Z,19.70
2023-05-07T09:40:07.806Z,19.80
2023-05-07T09:43:55.987Z,19.88
2023-05-07T09:47:39.572Z,19.93
2023-05-07T09:51:31.107Z,20.06
2023-05-07T09:55:15.525Z,20.17
2023-05-07T09:58:59.858Z,20.24
2023-05-07T10:02:47.543Z,20.29
2023-05-07T10:06:31.296Z,20.35
2023-05-07T10:10:16.498Z,20.51
2023-05-07T10:13:59.456Z,20.59
2023-05-07T10:17:42.674Z,20.69
2023-05-07T10:21:25.995Z,20.76
2023-05-07T10:25:12.947Z,20.82
2023-05-07T10:29:01.954Z,20.78
2023-05-07T10:32:47.352Z,20.80
2023-05-07T10:36:30.236Z,20.92
2023-05-07T10:40:14.936Z,21.04
2023-05-07T10:44:02.257Z,21.08
2023-05-07T10:48:27.171Z,21.19
2023-05-07T10:52:15.871Z,21.32
2023-05-07T10:56:26.884Z,21.45
2023-05-07T11:00:52.264Z,21.51
2023-05-07T11:04:36.661Z,21.49
2023-05-07T11:08:19.608Z,21.52
2023-05-07T11:12:02.334Z,21.59
2023-05-07T11:15:46.895Z,21.60
2023-05-07T11:19:53.553Z,21.69
2023-05-07T11:24:01.371Z,21.78
2023-05-07T11:27:44.289Z,21.90
2023-05-07T11:31:29.404Z,22.04
2023-05-07T11:35:13.800Z,22.19
2023-05-07T11:38:57.107Z,22.21
2023-05-07T11:42:43.889Z,22.21
2023-05-07T11:46:27.256Z,22.09
2023-05-07T11:50:11.617Z,22.20
2023-05-07T11:53:55.982Z,22.34
2023-05-07T11:57:38.738Z,22.46
2023-05-07T12:01:21.521Z,22.63
2023-05-07T12:05:06.494Z,22.81
2023-05-07T12:08:49.341Z,22.86
2023-05-07T12:12:33.588Z,22.92
2023-05-07T12:16:19.235Z,22.97
2023-05-07T12:20:05.801Z,23.05
2023-05-07T12:23:48.966Z,23.16
2023-05-07T12:27:33.257Z,23.26
2023-05-07T12:31:16.795Z,23.30
2023-05-07T12:34:59.707Z,23.34
2023-05-07T12:38:42.701Z,23.43
2023-05-07T12:42:27.285Z,23.42
2023-05-07T12:46:11.777Z,23.47
2023-05-07T12:49:56.630Z,23.56
2023-05-07T12:53:44.628Z,23.64
2023-05-07T12:57:27.629Z,23.67
2023-05-07T13:01:16.558Z,23.77
2023-05-07T13:05:06.540Z,23.97
2023-05-07T13:08:49.439Z,24.09
2023-05-07T13:12:32.282Z,24.12
2023-05-07T13:16:22.410Z,24.15
2023-05-07T13:20:06.582Z,24.37
2023-05-07T13:23:49.264Z,24.57
2023-05-07T13:27:32.089Z,24.65
2023-05-07T13:31:16.169Z,24.75
2023-05-07T13:34:58.865Z,24.69
2023-05-07T13:38:41.661Z,24.81
2023-05-07T13:42:24.408Z,25.01
2023-05-07T13:46:07.210Z,25.32
2023-05-07T13:49:51.553Z,25.66
2023-05-07T13:53:34.381Z,26.03
2023-05-07T13:57:17.173Z,26.35
2023-05-07T14:00:59.868Z,26.63
2023-05-07T14:04:42.657Z,26.94
2023-05-07T14:08:26.704Z,27.08
2023-05-07T14:12:09.630Z,26.97
2023-05-07T14:15:52.369Z,26.85
2023-05-07T14:19:35.004Z,26.69
2023-05-07T14:23:18.687Z,26.34
2023-05-07T14:27:02.742Z,26.21
2023-05-07T14:30:45.773Z,25.93
2023-05-07T14:34:28.526Z,25.89
2023-05-07T14:38:11.170Z,25.99
2023-05-07T14:41:55.631Z,26.10
2023-05-07T14:45:39.771Z,26.28
2023-05-07T14:49:22.543Z,26.14
2023-05-07T14:53:05.325Z,25.93
2023-05-07T14:56:48.028Z,25.61
2023-05-07T15:00:30.743Z,25.20
2023-05-07T15:04:14.922Z,24.90
2023-05-07T15:07:57.830Z,24.58
2023-05-07T15:11:40.726Z,24.32
2023-05-07T15:15:23.378Z,24.05
2023-05-07T15:19:06.110Z,23.83
2023-05-07T15:22:50.084Z,23.58
2023-05-07T15:26:32.719Z,23.33
2023-05-07T15:30:16.188Z,23.10
2023-05-07T15:33:58.832Z,22.93
2023-05-07T15:37:41.462Z,22.70
2023-05-07T15:41:26.794Z,22.53
2023-05-07T15:45:11.895Z,22.39
2023-05-07T15:48:55.239Z,22.33
2023-05-07T15:52:39.081Z,22.20
2023-05-07T15:56:21.742Z,22.15
2023-05-07T16:00:09.477Z,21.98
2023-05-07T16:03:52.260Z,21.82
2023-05-07T16:07:34.963Z,21.62
2023-05-07T16:11:20.303Z,21.50
2023-05-07T16:15:03.184Z,21.34
2023-05-07T16:18:47.241Z,21.28
2023-05-07T16:22:30.252Z,21.22
2023-05-07T16:26:14.509Z,21.08
2023-05-07T16:29:58.327Z,21.13
2023-05-07T16:33:41.114Z,21.19
2023-05-07T16:37:25.139Z,21.17
2023-05-07T16:41:07.894Z,21.13
2023-05-07T16:44:50.526Z,21.04
2023-05-07T16:48:33.174Z,20.91
2023-05-07T16:52:15.881Z,20.91
2023-05-07T16:55:59.978Z,20.92
2023-05-07T16:59:42.759Z,20.82
2023-05-07T17:03:25.660Z,20.69
2023-05-07T17:07:08.415Z,20.58
2023-05-07T17:10:51.073Z,20.35
2023-05-07T17:14:35.156Z,20.26
2023-05-07T17:18:17.866Z,20.12
2023-05-07T17:22:00.595Z,19.98
2023-05-07T17:25:46.435Z,19.89
2023-05-07T17:29:30.892Z,19.83
2023-05-07T17:33:21.669Z,19.81
2023-05-07T17:37:05.093Z,19.75
2023-05-07T17:40:48.466Z,19.61
2023-05-07T17:44:31.226Z,19.55
2023-05-07T17:48:15.312Z,19.57
2023-05-07T17:51:58.107Z,19.58
2023-05-07T17:55:43.571Z,19.61
2023-05-07T17:59:26.271Z,19.60
2023-05-07T18:03:09.041Z,19.58
2023-05-07T18:06:53.176Z,19.55
2023-05-07T18:10:35.876Z,19.53
2023-05-07T18:14:18.503Z,19.53
2023-05-07T18:18:01.301Z,19.49
2023-05-07T18:21:44.709Z,19.43
2023-05-07T18:25:28.705Z,19.39
2023-05-07T18:29:11.387Z,19.36
2023-05-07T18:32:54.072Z,19.32
2023-05-07T18:36:36.949Z,19.29
2023-05-07T18:40:21.022Z,19.28
2023-05-07T18:44:05.222Z,19.27
2023-05-07T18:47:48.436Z,19.22
2023-05-07T18:51:31.249Z,19.18
2023-05-07T18:55:13.888Z,19.15
2023-05-07T18:58:56.553Z,19.10
2023-05-07T19:02:40.712Z,19.06
2023-05-07T19:06:23.397Z,19.03
2023-05-07T19:10:07.080Z,19.01
2023-05-07T19:13:49.839Z,18.98
2023-05-07T19:17:32.537Z,18.96
2023-05-07T19:21:16.581Z,18.94
2023-05-07T19:24:59.336Z,18.92
2023-05-07T19:28:45.263Z,18.91
2023-05-07T19:32:31.044Z,18.90
2023-05-07T19:36:13.788Z,18.86
2023-05-07T19:39:57.897Z,18.85
2023-05-07T19:43:41.060Z,18.81
2023-05-07T19:47:24.032Z,18.82
2023-05-07T19:51:06.770Z,18.79
2023-05-07T19:54:49.467Z,18.76
2023-05-07T19:58:33.763Z,18.73
2023-05-07T20:02:16.551Z,18.71
2023-05-07T20:05:59.829Z,18.70
2023-05-07T20:09:42.591Z,18.68
2023-05-07T20:13:26.827Z,18.64
2023-05-07T20:17:11.213Z,18.58
2023-05-07T20:20:53.821Z,18.53
2023-05-07T20:24:38.985Z,18.45
2023-05-07T20:28:22.054Z,18.39
2023-05-07T20:32:05.087Z,18.12
2023-05-07T20:35:49.386Z,17.96
2023-05-07T20:39:32.057Z,17.86
2023-05-07T20:43:14.773Z,17.78
2023-05-07T20:46:57.493Z,17.82
2023-05-07T20:50:40.183Z,17.85
2023-05-07T20:54:24.227Z,17.85
2023-05-07T20:58:06.910Z,17.85
2023-05-07T21:01:49.617Z,17.82
2023-05-07T21:05:32.408Z,17.82
2023-05-07T21:09:15.409Z,17.80
2023-05-07T21:12:59.561Z,17.78
2023-05-07T21:16:43.209Z,17.75
2023-05-07T21:20:26.144Z,17.74
2023-05-07T21:24:09.521Z,17.72
2023-05-07T21:27:53.201Z,17.71
2023-05-07T21:31:37.435Z,17.67
2023-05-07T21:35:20.274Z,17.66
2023-05-07T21:39:03.503Z,17.63
2023-05-07T21:42:46.653Z,17.60
2023-05-07T21:46:29.503Z,17.55
2023-05-07T21:50:13.915Z,17.53
2023-05-07T21:53:57.183Z,17.48
2023-05-07T21:57:41.977Z,17.45
2023-05-07T22:01:29.538Z,17.39
2023-05-07T22:05:13.749Z,17.37
2023-05-07T22:08:56.516Z,17.31
2023-05-07T22:12:39.540Z,17.27
2023-05-07T22:16:22.713Z,17.21
2023-05-07T22:20:06.504Z,17.18
2023-05-07T22:23:50.559Z,17.14
2023-05-07T22:27:33.279Z,17.08
2023-05-07T22:31:15.984Z,17.01
2023-05-07T22:34:58.725Z,16.98
2023-05-07T22:38:41.525Z,16.96
2023-05-07T22:42:25.663Z,16.90
2023-05-07T22:46:08.669Z,16.88
2023-05-07T22:49:51.570Z,16.87
2023-05-07T22:53:34.233Z,16.90
2023-05-07T22:57:16.871Z,16.91
2023-05-07T23:01:00.971Z,16.88
2023-05-07T23:04:43.633Z,16.80
2023-05-07T23:08:26.303Z,16.74
2023-05-07T23:12:09.647Z,16.72
2023-05-07T23:15:52.329Z,16.75
2023-05-07T23:19:37.040Z,16.78
2023-05-07T23:23:19.730Z,16.80
2023-05-07T23:27:05.511Z,16.80
2023-05-07T23:30:48.256Z,16.77
2023-05-07T23:34:31.170Z,16.74
2023-05-07T23:38:15.168Z,16.71
2023-05-07T23:41:57.959Z,16.69
2023-05-07T23:45:40.719Z,16.68
2023-05-07T23:49:23.459Z,16.67
2023-05-07T23:53:06.118Z,16.64
2023-05-07T23:56:50.238Z,16.60
